Briggsdale, Colorado
Current Conditions -  °F | °C
As of 1:35 PM on Monday 24 Nov 2014 (Local Time) from KGXY Reporting Station
Scattered Clouds Scattered Clouds  
Wind Chill: 31°   Ceiling: Unl
Heat Index: 41°   Visibility: 10mi
Dew Point: 16°   Wind: 23mph
Humidity: 36%   Direction: 10°N
Pressure: 30.02"   Gusts: 26mph
Location:  40.63°N, 104.33°W
Report Text: KGXY 242035Z AUTO 01020G23KT 10SM FEW042 FEW055 SCT070 05/M09 A3002 RMK AO1
Loading
Personal Weather Stations






























Interactive Weather Map New forecast layout! Learn more

10-Day Weather Forecast

Advertisements
Track Severe Weather on mobile